Latest Coastal Weather Observations for Cape Nelson

IDS60701

Issued at 5:51 am CDT Tuesday 17 January 2017 (issued every 10 minutes, with the page automatically refreshed every 10 minutes)

About coastal observations | Map of coastal stations | Coastal observations for SA | Marine services | Other Formats
Station Details ID: 090184 Name: CAPE NELSON LIGHTHOUSE Lat: -38.43 Lon: 141.54 Height: 45.4 m
Data from the previous 72 hours. | See also: Recent months at Cape Nelson
Date/Time
CDT
Temp
°C
Wind Pressure Rain since
9am
mm
Weather Cloud Vis
km
Sea
Height
m
Swell
Dir  Spd
kts
Gust
kts
hPa Trend Height
m
Period
s
Dir
17/05:30am 17.6 NNW 5 7 1007.2 - 0.0 - - - - - - -
17/05:00am 17.2 NNW 7 7 1007.0 - 0.0 - - - - - - -
17/04:30am 16.9 NNW 6 7 1007.2 - 0.0 - - - - - - -
17/04:00am 16.5 NNW 7 9 1007.5 - 0.0 - - - - - - -
17/03:30am 16.5 NNW 5 7 1007.6 - 0.0 - - - - - - -
17/03:00am 16.4 NNW 6 7 1007.6 - 0.0 - - - - - - -
17/02:30am 16.7 NNW 5 6 1008.0 - 0.0 - - - - - - -
17/02:00am 16.8 NNW 5 5 1008.3 - 0.0 - - - - - - -
17/01:30am 17.0 N 5 5 1008.4 - 0.0 - - - - - - -
17/01:00am 17.3 NW 5 5 1008.6 - 0.0 - - - - - - -
17/12:30am 17.9 NW 4 5 1008.7 - 0.0 - - - - - - -
17/12:00am 18.6 NW 5 6 1009.0 - 0.0 - - - - - - -
 
Date/Time
CDT
Temp
°C
Wind Pressure Rain since
9am
mm
Weather Cloud Vis
km
Sea
Height
m
Swell
Dir  Spd
kts
Gust
kts
hPa Trend Height
m
Period
s
Dir
16/11:30pm 19.9 WNW 7 9 1009.3 - 0.0 - - - - - - -
16/11:00pm 20.0 WNW 8 11 1009.5 - 0.0 - - - - - - -
16/10:30pm 20.2 WNW 7 10 1009.7 - 0.0 - - - - - - -
16/10:00pm 20.1 NW 9 10 1009.5 - 0.0 - - - - - - -
16/09:30pm 20.7 WNW 11 13 1009.7 - 0.0 - - - - - - -
16/09:00pm 20.9 WNW 10 12 1010.1 - 0.0 - - - - - - -
16/08:30pm 21.3 WNW 10 13 1009.6 - 0.0 - - - - - - -
16/08:00pm 22.2 WNW 10 13 1009.6 - 0.0 - - - - - - -
16/07:30pm 23.3 WNW 8 13 1009.7 - 0.0 - - - - - - -
16/07:00pm 23.9 WSW 4 7 1009.5 - 0.0 - - - - - - -
16/06:30pm 25.9 WNW 5 8 1009.1 - 0.0 - - - - - - -
16/06:00pm 24.9 WNW 6 9 1009.3 - 0.0 - - - - - - -
16/05:30pm 23.8 SW 3 6 1009.8 - 0.0 - - - - - - -
16/05:00pm 24.1 SSW 3 5 1010.1 - 0.0 - - - - - - -
16/04:30pm 24.2 SSW 3 5 1010.4 - 0.0 - - - - - - -
16/04:00pm 22.1 SE 4 5 1010.9 - 0.0 - - - - - - -
16/03:30pm 21.0 SE 5 7 1011.3 - 0.0 - - - - - - -
16/03:00pm 21.5 SE 6 7 1011.5 - 0.0 - - - - - - -
16/02:30pm 21.6 SE 6 7 1011.8 - 0.0 - - - - - - -
16/02:00pm 21.0 SSE 5 6 1012.4 - 0.0 - - - - - - -
16/01:30pm 21.0 SSE 6 8 1012.9 - 0.0 - - - - - - -
16/01:00pm 21.5 ESE 6 8 1013.1 - 0.0 - - - - - - -
16/12:30pm 20.9 ESE 6 8 1013.3 - 0.0 - - - - - - -
16/12:00pm 20.7 E 8 9 1013.5 - 0.0 - - - - - - -
16/11:30am 20.0 E 8 10 1013.6 - 0.0 - - - - - - -
16/11:00am 19.5 E 7 10 1014.0 - 0.0 - - - - - - -
16/10:30am 19.2 E 8 10 1014.4 - 0.0 - - - - - - -
16/10:00am 18.9 ENE 7 10 1014.7 - 0.0 - - - - - - -
16/09:30am 19.4 NNE 10 13 1015.0 - 0.0 - - - - - - -
16/09:00am 18.0 NNE 11 15 1015.1 - 0.0 - - - - - - -
16/08:30am 17.3 NNE 10 13 1015.1 - 0.0 - - - - - - -
16/08:00am 15.6 NNE 9 13 1015.2 - 0.0 - - - - - - -
16/07:30am 14.3 NNE 9 12 1015.1 - 0.0 - - - - - - -
16/07:00am 13.1 NNE 8 10 1015.0 - 0.0 - - - - - - -
16/06:30am 11.4 NNE 6 8 1015.0 - 0.0 - - - - - - -
16/06:00am 10.1 NNE 7 8 1014.8 - 0.0 - - - - - - -
16/05:30am 9.6 N 6 7 1015.0 - 0.0 - - - - - - -
16/05:00am 9.7 N 7 8 1015.1 - 0.0 - - - - - - -
16/04:30am 9.7 N 7 8 1014.9 - 0.0 - - - - - - -
16/04:00am 9.8 NNE 5 6 1014.8 - 0.0 - - - - - - -
16/03:30am 9.5 NE 4 5 1014.6 - 0.0 - - - - - - -
16/03:00am 9.7 NE 3 5 1014.8 - 0.0 - - - - - - -
16/02:30am 9.7 CALM 0 0 1015.1 - 0.0 - - - - - - -
16/02:00am 10.4 CALM 0 0 1015.5 - 0.0 - - - - - - -
16/01:30am 10.3 SW 1 4 1015.9 - 0.0 - - - - - - -
16/01:00am 11.4 SSE 2 5 1016.2 - 0.0 - - - - - - -
16/12:30am 14.4 S 4 6 1016.4 - 0.0 - - - - - - -
16/12:00am 14.3 S 5 7 1016.6 - 0.0 - - - - - - -
 
Date/Time
CDT
Temp
°C
Wind Pressure Rain since
9am
mm
Weather Cloud Vis
km
Sea
Height
m
Swell
Dir  Spd
kts
Gust
kts
hPa Trend Height
m
Period
s
Dir
15/11:30pm 14.6 S 5 6 1016.9 - 0.0 - - - - - - -
15/11:00pm 14.7 S 4 7 1017.2 - 0.0 - - - - - - -
15/10:30pm 15.0 S 7 11 1017.4 - 0.0 - - - - - - -
15/10:00pm 14.8 ESE 4 8 1017.7 - 0.0 - - - - - - -
15/09:30pm 15.0 SE 5 8 1017.7 - 0.0 - - - - - - -
15/09:00pm 15.2 ENE 5 10 1017.7 - 0.0 - - - - - - -
15/08:30pm 15.2 NNE 5 7 1017.8 - 0.0 - - - - - - -
15/08:00pm 15.6 WNW 5 7 1017.6 - 0.0 - - - - - - -
15/07:30pm 16.7 NW 6 11 1017.5 - 0.0 - - - - - - -
15/07:00pm 17.1 WNW 6 10 1017.6 - 0.0 - - - - - - -
15/06:30pm 17.7 WSW 5 8 1017.7 - 0.0 - - - - - - -
15/06:00pm 16.9 WNW 5 9 1017.9 - 0.0 - - - - - - -
15/05:30pm 17.8 WSW 5 7 1018.1 - 0.0 - - - - - - -
15/05:00pm 18.5 NW 4 6 1018.3 - 0.0 - - - - - - -
15/04:30pm 18.1 NE 5 7 1018.6 - 0.0 - - - - - - -
15/04:00pm 18.0 ENE 5 9 1018.9 - 0.0 - - - - - - -
15/03:30pm 18.6 N 6 9 1019.0 - 0.0 - - - - - - -
15/03:00pm 17.4 WNW 9 14 1019.4 - 0.0 - - - - - - -
15/02:30pm 16.6 W 12 15 1019.5 - 0.0 - - - - - - -
15/02:00pm 16.5 W 11 15 1019.4 - 0.0 - - - - - - -
15/01:30pm 16.4 W 9 13 1019.7 - 0.0 - - - - - - -
15/01:00pm 16.2 WNW 11 16 1019.8 - 0.0 - - - - - - -
15/12:30pm 17.1 W 9 13 1019.8 - 0.0 - - - - - - -
15/12:00pm 16.1 W 7 11 1019.8 - 0.0 - - - - - - -
15/11:30am 16.0 W 7 11 1019.9 - 0.0 - - - - - - -
15/11:00am 16.4 W 6 9 1019.8 - 0.0 - - - - - - -
15/10:30am 16.1 W 7 10 1019.7 - 0.0 - - - - - - -
15/10:00am 15.6 W 8 13 1019.8 - 0.0 - - - - - - -
15/09:30am 15.6 W 8 12 1019.8 - 0.0 - - - - - - -
15/09:00am 15.6 W 6 9 1019.6 - 0.0 - - - - - - -
15/08:30am 15.7 W 6 8 1019.4 - 0.0 - - - - - - -
15/08:00am 15.3 W 5 8 1019.0 - 0.0 - - - - - - -
15/07:30am 15.0 SSE 4 7 1018.9 - 0.0 - - - - - - -
15/07:00am 14.8 NE 5 8 1018.5 - 0.0 - - - - - - -
15/06:30am 14.8 NE 5 7 1018.1 - 0.0 - - - - - - -
15/06:00am 15.0 N 5 7 1017.7 - 0.0 - - - - - - -
15/05:30am 14.9 N 6 9 1017.7 - 0.0 - - - - - - -
15/05:00am 14.9 S 5 10 1017.5 - 0.0 - - - - - - -
15/04:30am 14.6 NE 4 8 1017.2 - 0.0 - - - - - - -
15/04:00am 14.6 NNE 7 11 1017.2 - 0.0 - - - - - - -
15/03:30am 14.7 ESE 7 11 1017.0 - 0.0 - - - - - - -
15/03:00am 14.9 SE 7 18 1016.9 - 0.0 - - - - - - -
15/02:30am 15.0 ENE 7 12 1017.0 - 0.0 - - - - - - -
15/02:00am 15.1 SE 9 14 1017.0 - 0.0 - - - - - - -
15/01:30am 14.9 NE 7 12 1017.2 - 0.0 - - - - - - -
15/01:00am 14.9 NE 8 14 1017.4 - 0.0 - - - - - - -
15/12:30am 14.9 E 8 16 1017.6 - 0.0 - - - - - - -
15/12:00am 15.0 NW 10 16 1017.6 - 0.0 - - - - - - -
 
Date/Time
CDT
Temp
°C
Wind Pressure Rain since
9am
mm
Weather Cloud Vis
km
Sea
Height
m
Swell
Dir  Spd
kts
Gust
kts
hPa Trend Height
m
Period
s
Dir
14/11:30pm 15.0 NW 9 14 1017.7 - 0.0 - - - - - - -
14/11:00pm 15.0 N 9 14 1017.5 - 0.0 - - - - - - -
14/10:30pm 15.1 NE 9 14 1017.3 - 0.0 - - - - - - -
14/10:00pm 15.1 N 9 15 1017.3 - 0.0 - - - - - - -
14/09:30pm 15.1 NE 9 14 1017.1 - 0.0 - - - - - - -
14/09:00pm 15.3 ENE 9 14 1016.8 - 0.0 - - - - - - -
14/08:30pm 15.4 NE 9 13 1016.5 - 0.0 - - - - - - -
14/08:00pm 15.5 NE 8 13 1016.2 - 0.0 - - - - - - -
14/07:30pm 15.7 NW 9 17 1016.0 - 0.0 - - - - - - -
14/07:00pm 16.5 NNW 9 16 1015.6 - 0.0 - - - - - - -
14/06:30pm 16.6 NW 10 18 1015.3 - 0.0 - - - - - - -
14/06:00pm 16.4 WNW 15 24 1015.2 - 0.0 - - - - - - -
14/05:30pm 17.2 W 14 21 1015.0 - 0.0 - - - - - - -
14/05:00pm 17.4 NNW 11 18 1014.7 - 0.0 - - - - - - -
14/04:30pm 17.2 WNW 14 22 1014.8 - 0.0 - - - - - - -
14/04:00pm 17.4 NW 12 20 1014.3 - 0.0 - - - - - - -
14/03:30pm 17.4 NW 14 26 1013.9 - 0.0 - - - - - - -
14/03:00pm 17.4 WNW 14 21 1013.5 - 0.0 - - - - - - -
14/02:30pm 17.1 NNW 12 20 1012.9 - 0.0 - - - - - - -
14/02:00pm 17.4 WNW 15 24 1012.6 - 0.0 - - - - - - -
14/01:30pm 15.5 W 22 32 1012.6 - 0.0 - - - - - - -
14/01:00pm 16.6 W 19 29 1012.3 - 0.0 - - - - - - -
14/12:44pm 16.7 W 18 28 1012.1 - 0.0 - - - - - - -
14/12:30pm 16.1 W 20 29 1012.0 - 0.0 - - - - - - -
14/12:10pm 16.5 W 19 31 1011.5 - 0.0 - - - - - - -
14/12:00pm 17.1 NNW 14 27 1011.3 - 0.0 - - - - - - -
14/11:51am 17.0 W 22 34 1010.9 - 0.0 - - - - - - -
14/11:35am 16.8 W 23 33 1010.9 - 0.0 - - - - - - -
14/11:30am 16.4 W 25 33 1010.8 - 0.0 - - - - - - -
14/11:17am 16.7 W 23 33 1010.6 - 0.0 - - - - - - -
14/11:00am 16.4 W 25 33 1010.3 - 0.0 - - - - - - -
14/10:30am 16.0 W 25 33 1009.8 - 0.0 - - - - - - -
14/10:09am 16.0 W 20 34 1009.5 - 0.0 - - - - - - -
14/10:08am 16.0 WNW 19 29 1009.4 - 0.0 - - - - - - -
14/10:01am 15.8 NW 16 26 1009.1 - 0.0 - - - - - - -
14/10:00am 15.9 NW 17 29 1009.1 - 0.0 - - - - - - -
14/09:58am 15.7 WNW 20 34 1009.2 - 0.0 - - - - - - -
14/09:55am 15.8 W 23 35 1009.0 - 0.0 - - - - - - -
14/09:30am 16.1 W 23 33 1009.3 - 0.0 - - - - - - -
14/09:00am 15.5 WNW 21 36 1008.9 - 0.0 - - - - - - -
14/08:53am 15.4 W 22 38 1008.5 - 0.0 - - - - - - -
14/08:51am 15.6 W 23 38 1008.3 - 0.0 - - - - - - -
14/08:30am 16.4 W 27 38 1008.5 - 10.4 - - - - - - -
14/08:00am 16.3 W 25 37 1007.9 - 10.4 - - - - - - -
14/07:30am 16.0 W 23 35 1007.5 - 10.4 - - - - - - -
14/07:00am 15.0 W 24 37 1007.1 - 10.4 - - - - - - -
14/06:30am 15.8 W 27 38 1006.4 - 10.0 - - - - - - -
14/06:00am 15.8 W 29 42 1005.9 - 10.0 - - - - - - -
14/05:54am 15.6 W 30 40 1005.7 - 10.0 - - - - - - -
14/05:44am 16.3 W 29 40 1005.5 - 10.0 - - - - - - -
14/05:30am 16.1 W 22 33 1005.4 - 10.0 - - - - - - -

Other Formats:

Comma delimited format used in spreadsheet applications
http://www.bom.gov.au/fwo/IDS60701/IDS60701.94826.axf

JavaScript Object Notation format (JSON) in row-major order
http://www.bom.gov.au/fwo/IDS60701/IDS60701.94826.json